ADDS METAR Data INFO
IDs: Format: Raw Decoded Include TAF

Data at: 1848 UTC 17 Oct 2017

KEMV 171835Z AUTO 36009KT 10SM CLR 16/00 A3033 RMK AO2
KEMV 171815Z AUTO 33009G14KT 10SM CLR 16/00 A3033 RMK AO2
KEMV 171755Z AUTO 01007KT 10SM CLR 16/00 A3034 RMK AO2
KEMV 171735Z AUTO 33009G15KT 10SM CLR 15/00 A3034 RMK AO2
KEMV 171715Z AUTO 31011G15KT 10SM CLR 15/01 A3035 RMK AO2
KEMV 171655Z AUTO 33007G14KT 10SM CLR 15/02 A3036 RMK AO2
KEMV 171635Z AUTO 32008KT 10SM CLR 15/03 A3037 RMK AO2
KEMV 171615Z AUTO 33009G16KT 10SM CLR 14/03 A3038 RMK AO2
KEMV 171555Z AUTO 33009KT 10SM CLR 14/05 A3038 RMK AO2
KEMV 171535Z AUTO 30007KT 10SM CLR 13/05 A3038 RMK AO2
KEMV 171515Z AUTO 35009G14KT 10SM CLR 13/05 A3039 RMK AO2
KEMV 171455Z AUTO 35007KT 10SM CLR 12/06 A3038 RMK AO2
KEMV 171435Z AUTO 02007KT 10SM CLR 12/05 A3038 RMK AO2
KEMV 171415Z AUTO 34008KT 10SM CLR 11/06 A3038 RMK AO2
KEMV 171355Z AUTO 34009G14KT 10SM CLR 11/06 A3038 RMK AO2
KEMV 171335Z AUTO 33007KT 10SM CLR 10/05 A3038 RMK AO2
KEMV 171315Z AUTO 34006KT 10SM CLR 09/05 A3037 RMK AO2
KEMV 171255Z AUTO 33006KT 10SM CLR 08/05 A3037 RMK AO2
KEMV 171235Z AUTO 32008KT 10SM CLR 07/04 A3036 RMK AO2
KEMV 171215Z AUTO 31007KT 10SM CLR 06/03 A3035 RMK AO2
KEMV 171155Z AUTO 32006KT 10SM CLR 05/03 A3034 RMK AO2
KEMV 171135Z AUTO 32005KT 10SM CLR 05/02 A3033 RMK AO2
KEMV 171115Z AUTO 31005KT 10SM CLR 05/02 A3032 RMK AO2
KEMV 171055Z AUTO 31005KT 10SM CLR 05/02 A3031 RMK AO2
KEMV 171035Z AUTO 31005KT 10SM CLR 05/03 A3031 RMK AO2
KEMV 171015Z AUTO 32004KT 10SM CLR 05/02 A3031 RMK AO2
KEMV 170955Z AUTO 31005KT 10SM CLR 05/03 A3030 RMK AO2
KEMV 170935Z AUTO 31005KT 10SM CLR 05/03 A3029 RMK AO2 TSNO
KEMV 170915Z AUTO 31006KT 10SM CLR 06/03 A3029 RMK AO2
KEMV 170855Z AUTO 31006KT 10SM CLR 05/03 A3028 RMK AO2
KEMV 170835Z AUTO 32003KT 10SM CLR 05/03 A3027 RMK AO2
KEMV 170815Z AUTO 31003KT 10SM CLR 06/03 A3026 RMK AO2
KEMV 170755Z AUTO 31004KT 10SM CLR 06/03 A3026 RMK AO2
KEMV 170735Z AUTO 30003KT 10SM CLR 06/03 A3025 RMK AO2
KEMV 170715Z AUTO 00000KT 10SM CLR 06/03 A3026 RMK AO2
KEMV 170655Z AUTO 31003KT 10SM CLR 06/04 A3025 RMK AO2
KEMV 170635Z AUTO 32006KT 10SM CLR 07/04 A3026 RMK AO2
KEMV 170615Z AUTO 32006KT 10SM CLR 07/04 A3026 RMK AO2
KEMV 170555Z AUTO 31004KT 10SM CLR 07/04 A3026 RMK AO2
KEMV 170535Z AUTO 32005KT 10SM CLR 07/04 A3025 RMK AO2
KEMV 170515Z AUTO 00000KT 10SM CLR 06/05 A3025 RMK AO2
KEMV 170455Z AUTO 30003KT 10SM CLR 07/05 A3025 RMK AO2
KEMV 170435Z AUTO 30004KT 10SM CLR 08/05 A3025 RMK AO2
KEMV 170415Z AUTO 32005KT 10SM CLR 08/06 A3025 RMK AO2
KEMV 170355Z AUTO 32006KT 10SM CLR 08/06 A3025 RMK AO2
KEMV 170335Z AUTO 31004KT 10SM CLR 08/06 A3024 RMK AO2
KEMV 170315Z AUTO 31003KT 10SM CLR 08/07 A3024 RMK AO2
KEMV 170255Z AUTO 00000KT 10SM CLR 07/07 A3024 RMK AO2
KEMV 170235Z AUTO 00000KT 10SM CLR 07/06 A3024 RMK AO2
KEMV 170215Z AUTO 00000KT 10SM CLR 07/07 A3023 RMK AO2
KEMV 170155Z AUTO 00000KT 10SM CLR 07/07 A3023 RMK AO2
KEMV 170135Z AUTO 00000KT 10SM CLR 08/07 A3022 RMK AO2
KEMV 170110Z AUTO 00000KT 10SM CLR 08/07 A3021 RMK AO2
KEMV 170055Z AUTO 00000KT 10SM CLR 09/08 A3020 RMK AO2
KEMV 170035Z AUTO 32005KT 10SM CLR 11/08 A3019 RMK AO2
KEMV 170015Z AUTO 00000KT 10SM CLR 10/08 A3019 RMK AO2 TSNO
KEMV 162355Z AUTO 00000KT 7SM CLR 10/08 A3019 RMK AO2
KEMV 162335Z AUTO 00000KT 10SM CLR 11/08 A3017 RMK AO2
KEMV 162315Z AUTO 35003KT 10SM CLR 12/08 A3017 RMK AO2
KEMV 162255Z AUTO 32003KT 10SM CLR 13/08 A3015 RMK AO2
KEMV 162235Z AUTO 32005KT 10SM CLR 14/08 A3014 RMK AO2
KEMV 162215Z AUTO 31006KT 10SM CLR 15/08 A3013 RMK AO2
KEMV 162155Z AUTO 33007KT 10SM CLR 16/08 A3012 RMK AO2
KEMV 162135Z AUTO 33007G15KT 10SM CLR 16/08 A3012 RMK AO2
KEMV 162115Z AUTO 33010G14KT 10SM SCT050 SCT070 17/10 A3011 RMK AO2
KEMV 162055Z AUTO 33006KT 10SM SCT050 BKN070 17/11 A3010 RMK AO2
KEMV 162035Z AUTO 35007KT 10SM SCT050 BKN070 16/11 A3010 RMK AO2
KEMV 162015Z AUTO 34004KT 10SM SCT060 OVC065 16/12 A3010 RMK AO2
KEMV 161955Z AUTO 33007KT 10SM OVC060 16/11 A3010 RMK AO2
KEMV 161935Z AUTO 34006KT 10SM SCT047 OVC060 16/11 A3010 RMK AO2
KEMV 161915Z AUTO 34004KT 10SM OVC047 16/12 A3010 RMK AO2
KEMV 161855Z AUTO 34005KT 10SM OVC049 15/12 A3010 RMK AO2
KEMV 161835Z AUTO 34007KT 10SM OVC049 15/12 A3009 RMK AO2
KEMV 161815Z AUTO 33006KT 10SM OVC049 15/12 A3009 RMK AO2
KEMV 161755Z AUTO 34006KT 10SM OVC047 15/12 A3009 RMK AO2
KEMV 161735Z AUTO 34005KT 10SM -RA OVC047 15/11 A3010 RMK AO2
KEMV 161715Z AUTO 33007KT 10SM -SN OVC043 15/11 A3010 RMK AO2
KEMV 161655Z AUTO 34007G16KT 10SM -RA OVC043 15/12 A3010 RMK AO2
KEMV 161635Z AUTO 32008KT 290V000 10SM OVC041 15/12 A3010 RMK AO2
KEMV 161615Z AUTO 33006KT 10SM -RA OVC039 15/13 A3009 RMK AO2
KEMV 161555Z AUTO 33005KT 10SM -RA BKN037 OVC110 15/12 A3010 RMK AO2
KEMV 161535Z AUTO 35004KT 10SM -RA SCT035 BKN080 OVC110 14/12 A3009 RMK AO2
KEMV 161515Z AUTO 36005KT 10SM -RA OVC033 14/12 A3009 RMK AO2
KEMV 161455Z AUTO 34006KT 10SM -RA OVC031 14/12 A3010 RMK AO2
KEMV 161435Z AUTO 34007G14KT 10SM RA OVC027 14/12 A3010 RMK AO2
KEMV 161415Z AUTO 34008KT 300V000 10SM BKN027 OVC065 14/12 A3009 RMK AO2
KEMV 161355Z AUTO 34008G14KT 310V010 10SM DZ SCT049 OVC055 15/11 A3008 RMK AO2
KEMV 161335Z AUTO 36009G15KT 10SM SCT014 OVC049 15/11 A3007 RMK AO2
KEMV 161315Z AUTO 36012G18KT 10SM SCT014 BKN021 OVC049 16/12 A3008 RMK AO2
KEMV 161255Z AUTO 34014G18KT 10SM BKN012 BKN022 OVC037 16/13 A3007 RMK AO2
KEMV 161235Z AUTO 34011G19KT 10SM SCT010 BKN015 OVC050 17/15 A3005 RMK AO2
KEMV 161215Z AUTO 35013G18KT 10SM OVC010 19/17 A3002 RMK AO2
KEMV 161155Z AUTO 31012G16KT 10SM OVC012 20/18 A3000 RMK AO2
KEMV 161135Z AUTO 28004KT 10SM SCT014 BKN038 OVC085 20/18 A2999 RMK AO2
KEMV 161115Z AUTO 24008KT 10SM SCT023 BKN034 OVC040 20/18 A2997 RMK AO2
KEMV 161055Z AUTO 21003KT 10SM BKN021 OVC028 20/18 A2997 RMK AO2
KEMV 161035Z AUTO 00000KT 10SM BKN022 OVC028 19/18 A2997 RMK AO2 LTG DSNT SE
KEMV 161015Z AUTO 00000KT 10SM OVC024 19/18 A2997 RMK AO2
KEMV 160955Z AUTO 00000KT 10SM BKN024 OVC030 19/18 A2996 RMK AO2
KEMV 160935Z AUTO 00000KT 10SM BKN032 OVC100 20/18 A2995 RMK AO2
KEMV 160915Z AUTO 00000KT 10SM BKN100 OVC120 19/18 A2994 RMK AO2
KEMV 160855Z AUTO 00000KT 10SM SCT110 19/18 A2994 RMK AO2 LTG DSNT SE
KEMV 160835Z AUTO 00000KT 10SM SCT100 19/18 A2994 RMK AO2
KEMV 160815Z AUTO 00000KT 10SM BKN100 19/18 A2994 RMK AO2
KEMV 160755Z AUTO 14003KT 10SM SCT100 19/18 A2994 RMK AO2
KEMV 160735Z AUTO 14003KT 10SM CLR 20/18 A2994 RMK AO2
KEMV 160715Z AUTO 18003KT 10SM CLR 20/18 A2995 RMK AO2
KEMV 160655Z AUTO 17003KT 10SM CLR 20/18 A2996 RMK AO2